sensor_id;sensor_type;location;lat;lon;timestamp;P1;durP1;ratioP1;P2;durP2;ratioP2
75928;SDS011;64606;44.062;2.986;2023-06-14T00:02:11;0.00;;;0.00;;
75928;SDS011;64606;44.062;2.986;2023-06-14T00:04:37;0.10;;;0.10;;
75928;SDS011;64606;44.062;2.986;2023-06-14T00:07:05;2.17;;;0.10;;
75928;SDS011;64606;44.062;2.986;2023-06-14T00:09:34;0.00;;;0.00;;
75928;SDS011;64606;44.062;2.986;2023-06-14T00:12:00;0.00;;;0.00;;
75928;SDS011;64606;44.062;2.986;2023-06-14T00:14:26;0.00;;;0.00;;
75928;SDS011;64606;44.062;2.986;2023-06-14T00:16:53;0.00;;;0.00;;
75928;SDS011;64606;44.062;2.986;2023-06-14T00:19:24;0.00;;;0.00;;
75928;SDS011;64606;44.062;2.986;2023-06-14T00:21:50;0.00;;;0.00;;
75928;SDS011;64606;44.062;2.986;2023-06-14T00:24:17;0.00;;;0.00;;
75928;SDS011;64606;44.062;2.986;2023-06-14T00:26:44;0.00;;;0.00;;
75928;SDS011;64606;44.062;2.986;2023-06-14T00:29:10;0.10;;;0.10;;
75928;SDS011;64606;44.062;2.986;2023-06-14T00:31:36;0.10;;;0.10;;
75928;SDS011;64606;44.062;2.986;2023-06-14T00:34:02;0.00;;;0.00;;
75928;SDS011;64606;44.062;2.986;2023-06-14T00:36:28;0.03;;;0.03;;
75928;SDS011;64606;44.062;2.986;2023-06-14T00:38:54;0.08;;;0.08;;
75928;SDS011;64606;44.062;2.986;2023-06-14T00:41:21;0.15;;;0.15;;
75928;SDS011;64606;44.062;2.986;2023-06-14T00:43:47;0.00;;;0.00;;
75928;SDS011;64606;44.062;2.986;2023-06-14T00:46:13;0.20;;;0.20;;
75928;SDS011;64606;44.062;2.986;2023-06-14T00:48:39;0.10;;;0.10;;
75928;SDS011;64606;44.062;2.986;2023-06-14T00:51:06;0.00;;;0.00;;
75928;SDS011;64606;44.062;2.986;2023-06-14T00:53:32;0.10;;;0.10;;
75928;SDS011;64606;44.062;2.986;2023-06-14T00:56:00;0.08;;;0.08;;
75928;SDS011;64606;44.062;2.986;2023-06-14T00:58:27;0.10;;;0.10;;
75928;SDS011;64606;44.062;2.986;2023-06-14T01:00:53;0.00;;;0.00;;
75928;SDS011;64606;44.062;2.986;2023-06-14T01:03:19;0.00;;;0.00;;
75928;SDS011;64606;44.062;2.986;2023-06-14T01:05:48;0.00;;;0.00;;
75928;SDS011;64606;44.062;2.986;2023-06-14T01:09:01;0.00;;;0.00;;
75928;SDS011;64606;44.062;2.986;2023-06-14T01:11:03;0.00;;;0.00;;
75928;SDS011;64606;44.062;2.986;2023-06-14T01:13:35;0.00;;;0.00;;
75928;SDS011;64606;44.062;2.986;2023-06-14T01:16:02;0.00;;;0.00;;
75928;SDS011;64606;44.062;2.986;2023-06-14T01:18:28;0.10;;;0.10;;
75928;SDS011;64606;44.062;2.986;2023-06-14T01:20:55;0.13;;;0.13;;
75928;SDS011;64606;44.062;2.986;2023-06-14T01:23:22;1.02;;;0.20;;
75928;SDS011;64606;44.062;2.986;2023-06-14T01:25:49;0.00;;;0.00;;
75928;SDS011;64606;44.062;2.986;2023-06-14T01:28:19;0.20;;;0.20;;
75928;SDS011;64606;44.062;2.986;2023-06-14T01:30:50;0.00;;;0.00;;
75928;SDS011;64606;44.062;2.986;2023-06-14T01:33:19;0.10;;;0.10;;
75928;SDS011;64606;44.062;2.986;2023-06-14T01:35:46;0.00;;;0.00;;
75928;SDS011;64606;44.062;2.986;2023-06-14T01:38:13;0.00;;;0.00;;
75928;SDS011;64606;44.062;2.986;2023-06-14T01:40:39;0.00;;;0.00;;
75928;SDS011;64606;44.062;2.986;2023-06-14T01:43:06;0.32;;;0.32;;
75928;SDS011;64606;44.062;2.986;2023-06-14T01:45:33;0.00;;;0.00;;
75928;SDS011;64606;44.062;2.986;2023-06-14T01:47:59;0.00;;;0.00;;
75928;SDS011;64606;44.062;2.986;2023-06-14T01:50:32;5.78;;;1.30;;
75928;SDS011;64606;44.062;2.986;2023-06-14T01:52:58;3.15;;;1.48;;
75928;SDS011;64606;44.062;2.986;2023-06-14T01:55:24;5.03;;;1.58;;
75928;SDS011;64606;44.062;2.986;2023-06-14T01:57:53;2.60;;;1.50;;
75928;SDS011;64606;44.062;2.986;2023-06-14T02:00:20;2.53;;;1.30;;
75928;SDS011;64606;44.062;2.986;2023-06-14T02:02:47;2.63;;;1.23;;
75928;SDS011;64606;44.062;2.986;2023-06-14T02:05:14;3.38;;;1.40;;
75928;SDS011;64606;44.062;2.986;2023-06-14T02:07:44;5.30;;;1.17;;
75928;SDS011;64606;44.062;2.986;2023-06-14T02:10:10;2.53;;;1.25;;
75928;SDS011;64606;44.062;2.986;2023-06-14T02:12:37;3.03;;;1.55;;
75928;SDS011;64606;44.062;2.986;2023-06-14T02:15:03;2.75;;;1.20;;
75928;SDS011;64606;44.062;2.986;2023-06-14T02:17:31;2.85;;;1.45;;
75928;SDS011;64606;44.062;2.986;2023-06-14T02:19:57;4.25;;;1.58;;
75928;SDS011;64606;44.062;2.986;2023-06-14T02:22:23;3.58;;;1.83;;
75928;SDS011;64606;44.062;2.986;2023-06-14T02:24:49;4.10;;;1.88;;
75928;SDS011;64606;44.062;2.986;2023-06-14T02:27:15;3.10;;;1.30;;
75928;SDS011;64606;44.062;2.986;2023-06-14T02:29:42;4.50;;;1.58;;
75928;SDS011;64606;44.062;2.986;2023-06-14T02:32:08;6.45;;;1.38;;
75928;SDS011;64606;44.062;2.986;2023-06-14T02:34:34;5.43;;;1.30;;
75928;SDS011;64606;44.062;2.986;2023-06-14T02:37:01;3.42;;;1.15;;
75928;SDS011;64606;44.062;2.986;2023-06-14T02:39:30;3.88;;;1.38;;
75928;SDS011;64606;44.062;2.986;2023-06-14T02:41:56;5.85;;;1.40;;
75928;SDS011;64606;44.062;2.986;2023-06-14T02:44:26;3.03;;;1.60;;
75928;SDS011;64606;44.062;2.986;2023-06-14T02:46:53;1.98;;;1.15;;
75928;SDS011;64606;44.062;2.986;2023-06-14T02:49:20;1.95;;;1.20;;
75928;SDS011;64606;44.062;2.986;2023-06-14T02:51:46;3.03;;;1.63;;
75928;SDS011;64606;44.062;2.986;2023-06-14T02:54:12;3.42;;;1.58;;
75928;SDS011;64606;44.062;2.986;2023-06-14T02:56:38;4.35;;;2.05;;
75928;SDS011;64606;44.062;2.986;2023-06-14T02:59:05;3.17;;;1.60;;
75928;SDS011;64606;44.062;2.986;2023-06-14T03:01:32;3.42;;;1.50;;
75928;SDS011;64606;44.062;2.986;2023-06-14T03:03:59;3.38;;;1.80;;
75928;SDS011;64606;44.062;2.986;2023-06-14T03:06:25;5.50;;;1.75;;
75928;SDS011;64606;44.062;2.986;2023-06-14T03:08:51;2.47;;;1.55;;
75928;SDS011;64606;44.062;2.986;2023-06-14T03:11:20;3.05;;;1.73;;
75928;SDS011;64606;44.062;2.986;2023-06-14T03:13:46;2.92;;;1.70;;
75928;SDS011;64606;44.062;2.986;2023-06-14T03:16:12;5.47;;;1.50;;
75928;SDS011;64606;44.062;2.986;2023-06-14T03:18:39;3.90;;;1.23;;
75928;SDS011;64606;44.062;2.986;2023-06-14T03:21:05;4.50;;;1.60;;
75928;SDS011;64606;44.062;2.986;2023-06-14T03:23:34;3.22;;;1.52;;
75928;SDS011;64606;44.062;2.986;2023-06-14T03:26:00;5.40;;;2.10;;
75928;SDS011;64606;44.062;2.986;2023-06-14T03:28:26;3.22;;;1.85;;
75928;SDS011;64606;44.062;2.986;2023-06-14T03:30:52;3.10;;;1.60;;
75928;SDS011;64606;44.062;2.986;2023-06-14T03:33:18;4.57;;;1.73;;
75928;SDS011;64606;44.062;2.986;2023-06-14T03:35:44;6.55;;;1.60;;
75928;SDS011;64606;44.062;2.986;2023-06-14T03:38:10;4.63;;;1.50;;
75928;SDS011;64606;44.062;2.986;2023-06-14T03:40:36;3.03;;;1.45;;
75928;SDS011;64606;44.062;2.986;2023-06-14T03:43:02;5.72;;;1.30;;
75928;SDS011;64606;44.062;2.986;2023-06-14T03:45:29;3.38;;;1.60;;
75928;SDS011;64606;44.062;2.986;2023-06-14T03:47:55;4.57;;;1.83;;
75928;SDS011;64606;44.062;2.986;2023-06-14T03:50:21;5.95;;;1.50;;
75928;SDS011;64606;44.062;2.986;2023-06-14T03:52:48;3.65;;;1.70;;
75928;SDS011;64606;44.062;2.986;2023-06-14T03:55:15;6.28;;;2.35;;
75928;SDS011;64606;44.062;2.986;2023-06-14T03:57:41;5.50;;;2.10;;
75928;SDS011;64606;44.062;2.986;2023-06-14T04:00:08;5.70;;;2.30;;
75928;SDS011;64606;44.062;2.986;2023-06-14T04:02:35;9.07;;;2.60;;
75928;SDS011;64606;44.062;2.986;2023-06-14T04:05:02;4.50;;;2.40;;
75928;SDS011;64606;44.062;2.986;2023-06-14T04:07:28;5.38;;;2.75;;
75928;SDS011;64606;44.062;2.986;2023-06-14T04:09:55;5.78;;;2.60;;
75928;SDS011;64606;44.062;2.986;2023-06-14T04:12:21;5.68;;;2.30;;
75928;SDS011;64606;44.062;2.986;2023-06-14T04:14:47;5.18;;;2.60;;
75928;SDS011;64606;44.062;2.986;2023-06-14T04:17:13;5.47;;;2.50;;
75928;SDS011;64606;44.062;2.986;2023-06-14T04:19:39;4.80;;;2.42;;
75928;SDS011;64606;44.062;2.986;2023-06-14T04:22:05;6.05;;;2.35;;
75928;SDS011;64606;44.062;2.986;2023-06-14T04:24:32;13.65;;;3.22;;
75928;SDS011;64606;44.062;2.986;2023-06-14T04:26:59;8.07;;;2.42;;
75928;SDS011;64606;44.062;2.986;2023-06-14T04:29:28;5.38;;;2.20;;
75928;SDS011;64606;44.062;2.986;2023-06-14T04:31:56;7.50;;;2.50;;
75928;SDS011;64606;44.062;2.986;2023-06-14T04:34:26;6.95;;;2.75;;
75928;SDS011;64606;44.062;2.986;2023-06-14T04:36:57;8.63;;;3.15;;
75928;SDS011;64606;44.062;2.986;2023-06-14T04:39:24;5.55;;;2.92;;
75928;SDS011;64606;44.062;2.986;2023-06-14T04:41:52;5.50;;;2.45;;
75928;SDS011;64606;44.062;2.986;2023-06-14T04:44:21;5.43;;;2.85;;
75928;SDS011;64606;44.062;2.986;2023-06-14T04:46:49;5.22;;;2.80;;
75928;SDS011;64606;44.062;2.986;2023-06-14T04:49:16;9.25;;;3.10;;
75928;SDS011;64606;44.062;2.986;2023-06-14T04:51:43;9.95;;;2.72;;
75928;SDS011;64606;44.062;2.986;2023-06-14T04:54:10;6.53;;;2.88;;
75928;SDS011;64606;44.062;2.986;2023-06-14T04:56:39;7.82;;;3.08;;
75928;SDS011;64606;44.062;2.986;2023-06-14T04:59:05;7.65;;;3.00;;
75928;SDS011;64606;44.062;2.986;2023-06-14T05:01:31;7.90;;;3.08;;
75928;SDS011;64606;44.062;2.986;2023-06-14T05:03:58;8.13;;;2.67;;
75928;SDS011;64606;44.062;2.986;2023-06-14T05:06:25;5.30;;;2.65;;
75928;SDS011;64606;44.062;2.986;2023-06-14T05:08:54;6.63;;;2.72;;
75928;SDS011;64606;44.062;2.986;2023-06-14T05:11:20;7.38;;;2.70;;
75928;SDS011;64606;44.062;2.986;2023-06-14T05:13:49;7.68;;;2.55;;
75928;SDS011;64606;44.062;2.986;2023-06-14T05:16:15;5.47;;;2.53;;
75928;SDS011;64606;44.062;2.986;2023-06-14T05:18:42;5.57;;;2.03;;
75928;SDS011;64606;44.062;2.986;2023-06-14T05:21:08;5.57;;;2.45;;
75928;SDS011;64606;44.062;2.986;2023-06-14T05:23:34;6.43;;;2.30;;
75928;SDS011;64606;44.062;2.986;2023-06-14T05:26:00;9.68;;;2.25;;
75928;SDS011;64606;44.062;2.986;2023-06-14T05:28:29;5.28;;;2.47;;
75928;SDS011;64606;44.062;2.986;2023-06-14T05:30:55;5.20;;;2.70;;
75928;SDS011;64606;44.062;2.986;2023-06-14T05:33:23;4.80;;;2.45;;
75928;SDS011;64606;44.062;2.986;2023-06-14T05:35:49;5.25;;;2.35;;
75928;SDS011;64606;44.062;2.986;2023-06-14T05:38:15;6.80;;;2.50;;
75928;SDS011;64606;44.062;2.986;2023-06-14T05:40:41;4.65;;;2.50;;
75928;SDS011;64606;44.062;2.986;2023-06-14T05:43:08;10.70;;;2.30;;
75928;SDS011;64606;44.062;2.986;2023-06-14T05:45:34;4.45;;;2.28;;
75928;SDS011;64606;44.062;2.986;2023-06-14T05:48:00;5.57;;;3.05;;
75928;SDS011;64606;44.062;2.986;2023-06-14T05:50:26;5.85;;;3.15;;
75928;SDS011;64606;44.062;2.986;2023-06-14T05:52:53;5.97;;;3.53;;
75928;SDS011;64606;44.062;2.986;2023-06-14T05:55:19;7.57;;;3.72;;
75928;SDS011;64606;44.062;2.986;2023-06-14T05:57:45;6.22;;;3.70;;
75928;SDS011;64606;44.062;2.986;2023-06-14T06:00:13;6.82;;;3.67;;
75928;SDS011;64606;44.062;2.986;2023-06-14T06:02:41;7.65;;;3.80;;
75928;SDS011;64606;44.062;2.986;2023-06-14T06:05:13;8.52;;;4.25;;
75928;SDS011;64606;44.062;2.986;2023-06-14T06:07:42;6.88;;;3.80;;
75928;SDS011;64606;44.062;2.986;2023-06-14T06:10:11;9.45;;;4.10;;
75928;SDS011;64606;44.062;2.986;2023-06-14T06:12:37;7.00;;;3.97;;
75928;SDS011;64606;44.062;2.986;2023-06-14T06:15:04;6.15;;;3.75;;
75928;SDS011;64606;44.062;2.986;2023-06-14T06:17:30;9.40;;;3.90;;
75928;SDS011;64606;44.062;2.986;2023-06-14T06:19:56;6.78;;;4.05;;
75928;SDS011;64606;44.062;2.986;2023-06-14T06:22:22;8.60;;;4.35;;
75928;SDS011;64606;44.062;2.986;2023-06-14T06:24:48;9.05;;;4.43;;
75928;SDS011;64606;44.062;2.986;2023-06-14T06:27:14;10.13;;;4.63;;
75928;SDS011;64606;44.062;2.986;2023-06-14T06:29:42;7.90;;;4.55;;
75928;SDS011;64606;44.062;2.986;2023-06-14T06:32:09;5.93;;;3.92;;
75928;SDS011;64606;44.062;2.986;2023-06-14T06:34:35;12.52;;;4.95;;
75928;SDS011;64606;44.062;2.986;2023-06-14T06:37:02;10.45;;;5.05;;
75928;SDS011;64606;44.062;2.986;2023-06-14T06:39:28;13.88;;;5.13;;
75928;SDS011;64606;44.062;2.986;2023-06-14T06:41:54;8.02;;;4.00;;
75928;SDS011;64606;44.062;2.986;2023-06-14T06:44:20;10.60;;;4.60;;
75928;SDS011;64606;44.062;2.986;2023-06-14T06:46:46;6.40;;;4.25;;
75928;SDS011;64606;44.062;2.986;2023-06-14T06:49:13;9.70;;;5.00;;
75928;SDS011;64606;44.062;2.986;2023-06-14T06:51:42;12.02;;;4.70;;
75928;SDS011;64606;44.062;2.986;2023-06-14T06:54:09;10.00;;;4.65;;
75928;SDS011;64606;44.062;2.986;2023-06-14T06:56:35;8.48;;;4.80;;
75928;SDS011;64606;44.062;2.986;2023-06-14T06:59:01;8.45;;;4.63;;
75928;SDS011;64606;44.062;2.986;2023-06-14T07:01:28;6.97;;;4.57;;
75928;SDS011;64606;44.062;2.986;2023-06-14T07:03:55;10.88;;;4.43;;
75928;SDS011;64606;44.062;2.986;2023-06-14T07:06:21;7.25;;;4.50;;
75928;SDS011;64606;44.062;2.986;2023-06-14T07:08:48;7.60;;;4.22;;
75928;SDS011;64606;44.062;2.986;2023-06-14T07:11:14;6.82;;;4.35;;
75928;SDS011;64606;44.062;2.986;2023-06-14T07:13:40;7.15;;;4.50;;
75928;SDS011;64606;44.062;2.986;2023-06-14T07:16:06;7.50;;;4.28;;
75928;SDS011;64606;44.062;2.986;2023-06-14T07:18:32;7.15;;;4.10;;
75928;SDS011;64606;44.062;2.986;2023-06-14T07:20:58;5.15;;;3.80;;
75928;SDS011;64606;44.062;2.986;2023-06-14T07:23:25;7.53;;;4.22;;
75928;SDS011;64606;44.062;2.986;2023-06-14T07:25:51;5.05;;;3.53;;
75928;SDS011;64606;44.062;2.986;2023-06-14T07:28:17;5.82;;;4.25;;
75928;SDS011;64606;44.062;2.986;2023-06-14T07:30:43;9.77;;;4.00;;
75928;SDS011;64606;44.062;2.986;2023-06-14T07:33:10;10.20;;;4.32;;
75928;SDS011;64606;44.062;2.986;2023-06-14T07:35:37;9.38;;;4.72;;
75928;SDS011;64606;44.062;2.986;2023-06-14T07:38:03;7.68;;;4.40;;
75928;SDS011;64606;44.062;2.986;2023-06-14T07:40:29;6.40;;;4.75;;
75928;SDS011;64606;44.062;2.986;2023-06-14T07:42:55;7.97;;;4.43;;
75928;SDS011;64606;44.062;2.986;2023-06-14T07:45:21;8.32;;;4.65;;
75928;SDS011;64606;44.062;2.986;2023-06-14T07:47:48;8.48;;;5.15;;
75928;SDS011;64606;44.062;2.986;2023-06-14T07:50:15;8.88;;;4.82;;
75928;SDS011;64606;44.062;2.986;2023-06-14T07:52:41;14.07;;;4.82;;
75928;SDS011;64606;44.062;2.986;2023-06-14T07:55:07;5.55;;;3.95;;
75928;SDS011;64606;44.062;2.986;2023-06-14T07:57:33;9.18;;;4.63;;
75928;SDS011;64606;44.062;2.986;2023-06-14T08:00:00;6.97;;;4.75;;
75928;SDS011;64606;44.062;2.986;2023-06-14T08:02:26;8.77;;;4.72;;
75928;SDS011;64606;44.062;2.986;2023-06-14T08:04:52;9.10;;;5.40;;
75928;SDS011;64606;44.062;2.986;2023-06-14T08:07:19;12.98;;;4.63;;
75928;SDS011;64606;44.062;2.986;2023-06-14T08:09:45;7.43;;;4.78;;
75928;SDS011;64606;44.062;2.986;2023-06-14T08:12:11;8.75;;;4.55;;
75928;SDS011;64606;44.062;2.986;2023-06-14T08:14:38;4.85;;;4.07;;
75928;SDS011;64606;44.062;2.986;2023-06-14T08:17:04;6.50;;;4.38;;
75928;SDS011;64606;44.062;2.986;2023-06-14T08:19:31;8.43;;;4.35;;
75928;SDS011;64606;44.062;2.986;2023-06-14T08:21:57;6.43;;;5.00;;
75928;SDS011;64606;44.062;2.986;2023-06-14T08:24:23;7.75;;;5.35;;
75928;SDS011;64606;44.062;2.986;2023-06-14T08:26:49;10.07;;;5.63;;
75928;SDS011;64606;44.062;2.986;2023-06-14T08:29:16;7.90;;;5.10;;
75928;SDS011;64606;44.062;2.986;2023-06-14T08:31:42;7.07;;;5.30;;
75928;SDS011;64606;44.062;2.986;2023-06-14T08:34:08;8.70;;;5.50;;
75928;SDS011;64606;44.062;2.986;2023-06-14T08:36:37;10.90;;;6.05;;
75928;SDS011;64606;44.062;2.986;2023-06-14T08:39:03;11.85;;;5.78;;
75928;SDS011;64606;44.062;2.986;2023-06-14T08:41:29;9.48;;;5.60;;
75928;SDS011;64606;44.062;2.986;2023-06-14T08:43:56;16.80;;;4.93;;
75928;SDS011;64606;44.062;2.986;2023-06-14T08:46:22;7.57;;;4.85;;
75928;SDS011;64606;44.062;2.986;2023-06-14T08:48:52;7.47;;;5.05;;
75928;SDS011;64606;44.062;2.986;2023-06-14T08:51:22;6.90;;;4.28;;
75928;SDS011;64606;44.062;2.986;2023-06-14T08:53:52;7.00;;;4.57;;
75928;SDS011;64606;44.062;2.986;2023-06-14T08:56:19;6.50;;;4.80;;
75928;SDS011;64606;44.062;2.986;2023-06-14T08:58:47;7.97;;;4.47;;
75928;SDS011;64606;44.062;2.986;2023-06-14T09:01:13;9.13;;;4.60;;
75928;SDS011;64606;44.062;2.986;2023-06-14T09:03:41;6.38;;;4.38;;
75928;SDS011;64606;44.062;2.986;2023-06-14T09:06:08;6.90;;;4.93;;
75928;SDS011;64606;44.062;2.986;2023-06-14T09:08:40;6.10;;;4.43;;
75928;SDS011;64606;44.062;2.986;2023-06-14T09:11:08;9.15;;;4.35;;
75928;SDS011;64606;44.062;2.986;2023-06-14T09:13:34;11.93;;;4.90;;
75928;SDS011;64606;44.062;2.986;2023-06-14T09:16:00;7.93;;;4.60;;
75928;SDS011;64606;44.062;2.986;2023-06-14T09:18:36;6.35;;;4.65;;
75928;SDS011;64606;44.062;2.986;2023-06-14T09:21:03;8.57;;;4.38;;
75928;SDS011;64606;44.062;2.986;2023-06-14T09:23:29;6.45;;;4.68;;
75928;SDS011;64606;44.062;2.986;2023-06-14T09:25:59;10.32;;;4.47;;
75928;SDS011;64606;44.062;2.986;2023-06-14T09:28:28;10.05;;;4.53;;
75928;SDS011;64606;44.062;2.986;2023-06-14T09:30:54;6.95;;;4.45;;
75928;SDS011;64606;44.062;2.986;2023-06-14T09:33:20;8.32;;;4.50;;
75928;SDS011;64606;44.062;2.986;2023-06-14T09:35:50;9.88;;;5.07;;
75928;SDS011;64606;44.062;2.986;2023-06-14T09:38:17;9.27;;;4.63;;
75928;SDS011;64606;44.062;2.986;2023-06-14T09:40:43;8.70;;;4.78;;
75928;SDS011;64606;44.062;2.986;2023-06-14T09:43:09;7.30;;;4.90;;
75928;SDS011;64606;44.062;2.986;2023-06-14T09:45:35;5.97;;;5.00;;
75928;SDS011;64606;44.062;2.986;2023-06-14T09:48:02;9.70;;;5.18;;
75928;SDS011;64606;44.062;2.986;2023-06-14T09:50:28;6.70;;;5.00;;
75928;SDS011;64606;44.062;2.986;2023-06-14T09:52:55;7.65;;;5.30;;
75928;SDS011;64606;44.062;2.986;2023-06-14T09:55:24;6.55;;;5.15;;
75928;SDS011;64606;44.062;2.986;2023-06-14T09:57:52;10.18;;;5.65;;
75928;SDS011;64606;44.062;2.986;2023-06-14T10:00:21;8.05;;;5.30;;
75928;SDS011;64606;44.062;2.986;2023-06-14T10:02:49;7.88;;;5.45;;
75928;SDS011;64606;44.062;2.986;2023-06-14T10:05:18;8.23;;;5.57;;
75928;SDS011;64606;44.062;2.986;2023-06-14T10:08:04;10.30;;;5.90;;
75928;SDS011;64606;44.062;2.986;2023-06-14T10:10:33;6.28;;;5.50;;
75928;SDS011;64606;44.062;2.986;2023-06-14T10:12:59;6.78;;;5.60;;
75928;SDS011;64606;44.062;2.986;2023-06-14T10:15:38;6.45;;;5.38;;
75928;SDS011;64606;44.062;2.986;2023-06-14T10:18:23;6.78;;;5.38;;
75928;SDS011;64606;44.062;2.986;2023-06-14T10:23:23;8.15;;;5.68;;
75928;SDS011;64606;44.062;2.986;2023-06-14T10:25:50;7.00;;;5.72;;
75928;SDS011;64606;44.062;2.986;2023-06-14T10:28:21;6.93;;;5.40;;
75928;SDS011;64606;44.062;2.986;2023-06-14T10:33:27;8.95;;;5.78;;
75928;SDS011;64606;44.062;2.986;2023-06-14T10:38:35;5.97;;;5.35;;
75928;SDS011;64606;44.062;2.986;2023-06-14T10:41:02;6.45;;;5.55;;
75928;SDS011;64606;44.062;2.986;2023-06-14T10:43:29;8.32;;;5.55;;
75928;SDS011;64606;44.062;2.986;2023-06-14T10:46:14;8.20;;;5.20;;
75928;SDS011;64606;44.062;2.986;2023-06-14T10:48:41;5.30;;;4.35;;
75928;SDS011;64606;44.062;2.986;2023-06-14T10:51:21;7.03;;;4.20;;
75928;SDS011;64606;44.062;2.986;2023-06-14T10:53:47;8.23;;;4.10;;
75928;SDS011;64606;44.062;2.986;2023-06-14T10:56:24;8.15;;;5.07;;
75928;SDS011;64606;44.062;2.986;2023-06-14T10:58:52;6.70;;;4.90;;
75928;SDS011;64606;44.062;2.986;2023-06-14T11:01:19;5.97;;;4.93;;
75928;SDS011;64606;44.062;2.986;2023-06-14T11:06:15;5.22;;;4.28;;
75928;SDS011;64606;44.062;2.986;2023-06-14T11:11:29;5.72;;;4.57;;
75928;SDS011;64606;44.062;2.986;2023-06-14T11:13:57;6.55;;;4.70;;
75928;SDS011;64606;44.062;2.986;2023-06-14T11:16:26;6.85;;;5.25;;
75928;SDS011;64606;44.062;2.986;2023-06-14T11:18:53;5.93;;;4.70;;
75928;SDS011;64606;44.062;2.986;2023-06-14T11:21:19;8.30;;;4.50;;
75928;SDS011;64606;44.062;2.986;2023-06-14T11:23:49;7.18;;;4.90;;
75928;SDS011;64606;44.062;2.986;2023-06-14T11:26:23;9.27;;;4.63;;
75928;SDS011;64606;44.062;2.986;2023-06-14T11:28:54;13.07;;;4.75;;
75928;SDS011;64606;44.062;2.986;2023-06-14T11:31:20;6.32;;;4.65;;
75928;SDS011;64606;44.062;2.986;2023-06-14T11:33:49;8.65;;;4.88;;
75928;SDS011;64606;44.062;2.986;2023-06-14T11:36:15;10.88;;;5.20;;
75928;SDS011;64606;44.062;2.986;2023-06-14T11:38:41;14.77;;;4.90;;
75928;SDS011;64606;44.062;2.986;2023-06-14T11:41:08;6.07;;;4.60;;
75928;SDS011;64606;44.062;2.986;2023-06-14T11:43:35;8.15;;;5.13;;
75928;SDS011;64606;44.062;2.986;2023-06-14T11:46:02;12.30;;;4.88;;
75928;SDS011;64606;44.062;2.986;2023-06-14T11:48:41;6.68;;;4.90;;
75928;SDS011;64606;44.062;2.986;2023-06-14T11:51:07;8.10;;;4.88;;
75928;SDS011;64606;44.062;2.986;2023-06-14T11:53:33;5.88;;;5.00;;
75928;SDS011;64606;44.062;2.986;2023-06-14T11:56:00;8.20;;;4.88;;
75928;SDS011;64606;44.062;2.986;2023-06-14T11:58:26;6.40;;;5.07;;
75928;SDS011;64606;44.062;2.986;2023-06-14T12:00:53;9.50;;;5.20;;
75928;SDS011;64606;44.062;2.986;2023-06-14T12:03:23;8.25;;;5.22;;
75928;SDS011;64606;44.062;2.986;2023-06-14T12:06:03;6.13;;;5.03;;
75928;SDS011;64606;44.062;2.986;2023-06-14T12:08:33;9.48;;;5.10;;
75928;SDS011;64606;44.062;2.986;2023-06-14T12:11:10;17.13;;;4.93;;
75928;SDS011;64606;44.062;2.986;2023-06-14T12:13:40;7.93;;;5.20;;
75928;SDS011;64606;44.062;2.986;2023-06-14T12:16:10;8.73;;;5.45;;
75928;SDS011;64606;44.062;2.986;2023-06-14T12:18:37;8.60;;;5.55;;
75928;SDS011;64606;44.062;2.986;2023-06-14T12:21:07;9.50;;;5.32;;
75928;SDS011;64606;44.062;2.986;2023-06-14T12:23:53;7.63;;;5.80;;
75928;SDS011;64606;44.062;2.986;2023-06-14T12:26:19;7.70;;;4.82;;
75928;SDS011;64606;44.062;2.986;2023-06-14T12:28:46;7.00;;;5.28;;
75928;SDS011;64606;44.062;2.986;2023-06-14T12:31:13;9.23;;;5.28;;
75928;SDS011;64606;44.062;2.986;2023-06-14T12:33:40;11.18;;;5.95;;
75928;SDS011;64606;44.062;2.986;2023-06-14T12:36:07;8.13;;;5.57;;
75928;SDS011;64606;44.062;2.986;2023-06-14T12:38:34;9.40;;;5.10;;
75928;SDS011;64606;44.062;2.986;2023-06-14T12:41:00;9.50;;;5.47;;
75928;SDS011;64606;44.062;2.986;2023-06-14T12:43:26;10.32;;;5.30;;
75928;SDS011;64606;44.062;2.986;2023-06-14T12:45:53;9.23;;;5.45;;
75928;SDS011;64606;44.062;2.986;2023-06-14T12:48:19;7.03;;;5.63;;
75928;SDS011;64606;44.062;2.986;2023-06-14T12:50:47;7.70;;;4.97;;
75928;SDS011;64606;44.062;2.986;2023-06-14T12:53:13;9.85;;;5.30;;
75928;SDS011;64606;44.062;2.986;2023-06-14T12:55:40;9.00;;;6.07;;
75928;SDS011;64606;44.062;2.986;2023-06-14T12:58:06;8.20;;;5.53;;
75928;SDS011;64606;44.062;2.986;2023-06-14T13:00:32;8.02;;;5.40;;
75928;SDS011;64606;44.062;2.986;2023-06-14T13:02:58;8.25;;;5.72;;
75928;SDS011;64606;44.062;2.986;2023-06-14T13:05:25;8.68;;;6.22;;
75928;SDS011;64606;44.062;2.986;2023-06-14T13:07:51;7.60;;;5.80;;
75928;SDS011;64606;44.062;2.986;2023-06-14T13:10:17;8.65;;;5.97;;
75928;SDS011;64606;44.062;2.986;2023-06-14T13:12:43;7.93;;;5.45;;
75928;SDS011;64606;44.062;2.986;2023-06-14T13:15:10;9.02;;;6.30;;
75928;SDS011;64606;44.062;2.986;2023-06-14T13:17:36;6.28;;;5.50;;
75928;SDS011;64606;44.062;2.986;2023-06-14T13:20:06;11.23;;;6.13;;
75928;SDS011;64606;44.062;2.986;2023-06-14T13:22:33;7.85;;;6.07;;
75928;SDS011;64606;44.062;2.986;2023-06-14T13:25:00;8.00;;;5.85;;
75928;SDS011;64606;44.062;2.986;2023-06-14T13:27:26;7.38;;;5.75;;
75928;SDS011;64606;44.062;2.986;2023-06-14T13:29:53;13.52;;;5.55;;
75928;SDS011;64606;44.062;2.986;2023-06-14T13:32:20;7.38;;;5.88;;
75928;SDS011;64606;44.062;2.986;2023-06-14T13:34:46;9.63;;;6.35;;
75928;SDS011;64606;44.062;2.986;2023-06-14T13:37:12;9.65;;;6.32;;
75928;SDS011;64606;44.062;2.986;2023-06-14T13:39:40;9.15;;;6.55;;
75928;SDS011;64606;44.062;2.986;2023-06-14T13:42:06;8.25;;;6.40;;
75928;SDS011;64606;44.062;2.986;2023-06-14T13:44:32;7.95;;;6.07;;
75928;SDS011;64606;44.062;2.986;2023-06-14T13:46:59;10.23;;;6.00;;
75928;SDS011;64606;44.062;2.986;2023-06-14T13:49:25;13.18;;;6.93;;
75928;SDS011;64606;44.062;2.986;2023-06-14T13:51:51;8.43;;;6.57;;
75928;SDS011;64606;44.062;2.986;2023-06-14T13:54:19;9.90;;;7.05;;
75928;SDS011;64606;44.062;2.986;2023-06-14T13:56:46;12.32;;;7.45;;
75928;SDS011;64606;44.062;2.986;2023-06-14T13:59:12;12.18;;;7.60;;
75928;SDS011;64606;44.062;2.986;2023-06-14T14:01:38;12.00;;;7.65;;
75928;SDS011;64606;44.062;2.986;2023-06-14T14:04:04;13.35;;;7.00;;
75928;SDS011;64606;44.062;2.986;2023-06-14T14:06:30;10.55;;;8.00;;
75928;SDS011;64606;44.062;2.986;2023-06-14T14:08:57;11.00;;;8.13;;
75928;SDS011;64606;44.062;2.986;2023-06-14T14:11:24;12.18;;;8.23;;
75928;SDS011;64606;44.062;2.986;2023-06-14T14:13:50;12.93;;;8.77;;
75928;SDS011;64606;44.062;2.986;2023-06-14T14:16:16;15.52;;;8.23;;
75928;SDS011;64606;44.062;2.986;2023-06-14T14:18:42;11.27;;;9.05;;
75928;SDS011;64606;44.062;2.986;2023-06-14T14:21:08;12.80;;;8.68;;
75928;SDS011;64606;44.062;2.986;2023-06-14T14:23:34;11.30;;;8.40;;
75928;SDS011;64606;44.062;2.986;2023-06-14T14:26:00;12.02;;;8.73;;
75928;SDS011;64606;44.062;2.986;2023-06-14T14:28:29;13.82;;;9.40;;
75928;SDS011;64606;44.062;2.986;2023-06-14T14:30:55;11.30;;;8.43;;
75928;SDS011;64606;44.062;2.986;2023-06-14T14:33:21;11.00;;;8.30;;
75928;SDS011;64606;44.062;2.986;2023-06-14T14:35:48;14.27;;;9.32;;
75928;SDS011;64606;44.062;2.986;2023-06-14T14:38:14;13.38;;;8.63;;
75928;SDS011;64606;44.062;2.986;2023-06-14T14:40:41;13.63;;;8.07;;
75928;SDS011;64606;44.062;2.986;2023-06-14T14:43:07;16.55;;;9.48;;
75928;SDS011;64606;44.062;2.986;2023-06-14T14:45:33;14.32;;;8.57;;
75928;SDS011;64606;44.062;2.986;2023-06-14T14:48:00;10.35;;;7.95;;
75928;SDS011;64606;44.062;2.986;2023-06-14T14:50:27;10.60;;;8.05;;
75928;SDS011;64606;44.062;2.986;2023-06-14T14:52:54;10.65;;;7.47;;
75928;SDS011;64606;44.062;2.986;2023-06-14T14:55:21;12.23;;;8.27;;
75928;SDS011;64606;44.062;2.986;2023-06-14T14:57:47;12.77;;;8.38;;
75928;SDS011;64606;44.062;2.986;2023-06-14T15:00:15;19.42;;;10.43;;